2008 DAMAN (2007337S12186)


On this page: IBTrACS data - Map and Plots - Positions - Intensities - Original source data

Summary

Start Dec 3
End Dec 10
Basin SP
LMI 110 kt
Sources jtwc_sh
nadi
wellington
In WMO? Yes
Previous storm 2007 MISSING (WP)
Previous in basin 2008 GUBA (SP)
Concurrent storms 2008 DAMAN (SP)
Next in basin Missing
Next storm 2007 OLGA (NA)

top of page IBTrACS Data: File Access

No storm imagery available

top of page Plots:

Map of storm track will not appear if FTP is down
Time series of cyclone Maximum Sustained Wind will not appear if FTP is down
Time series of cyclone Minimum Central Pressure will not appear if FTP is down

top of page Track Data:Position

jtwc_sh nadi wellington
Date Lat Lon Lat Lon Lat Lon
2007-12-03 00:00:00 -12.0 185.5 -12.0 185.5
2007-12-03 06:00:00 -12.1 185.0 -12.1 185.0
2007-12-03 12:00:00 -12.5 -176.0 -12.3 184.5 -12.3 184.5
2007-12-03 18:00:00 -12.5 -176.7 -12.5 183.5 -12.5 183.5
2007-12-04 00:00:00 -12.4 -177.4 -12.5 182.5 -12.5 182.5
2007-12-04 06:00:00 -12.2 -178.3 -12.2 181.5 -12.2 181.5
2007-12-04 12:00:00 -12.0 -179.4 -12.0 180.4 -12.0 180.4
2007-12-04 18:00:00 -11.9 179.5 -12.0 179.5 -12.0 179.5
2007-12-05 00:00:00 -12.1 178.4 -12.0 178.2 -12.0 178.2
2007-12-05 06:00:00 -12.4 177.4 -12.3 177.1 -12.3 177.1
2007-12-05 12:00:00 -13.0 176.5 -12.8 176.4 -12.8 176.4
2007-12-05 18:00:00 -14.0 176.2 -13.9 175.9 -13.9 175.9
2007-12-06 00:00:00 -14.8 175.8 -14.6 175.8 -14.6 175.8
2007-12-06 06:00:00 -15.3 176.1 -15.2 175.9 -15.2 175.9
2007-12-06 12:00:00 -15.4 176.4 -15.4 176.2 -15.4 176.2
2007-12-06 18:00:00 -15.5 176.9 -15.5 176.9 -15.5 176.9
2007-12-07 00:00:00 -15.5 177.7 -15.5 177.9 -15.5 177.9
2007-12-07 06:00:00 -15.5 178.6 -15.5 178.6 -15.5 178.6
2007-12-07 12:00:00 -15.6 179.7 -15.6 179.7 -15.6 179.7
2007-12-07 18:00:00 -15.9 -179.1 -15.9 180.5 -15.9 180.5
2007-12-08 00:00:00 -16.3 -178.5 -16.3 181.4 -16.3 181.4
2007-12-08 06:00:00 -16.9 -178.3 -16.8 182.0 -16.8 182.0
2007-12-08 12:00:00 -17.3 -177.9 -17.4 182.1 -17.4 182.1
2007-12-08 18:00:00 -17.7 -177.9 -17.6 182.1 -17.6 182.1
2007-12-09 00:00:00 -18.1 -178.0 -18.1 182.0 -18.1 182.0
jtwc_sh nadi wellington
2007-12-09 06:00:00 -18.5 -178.0 -18.5 181.9 -18.5 181.9
2007-12-09 12:00:00 -18.8 -178.0 -18.9 181.9 -18.9 181.9
2007-12-09 18:00:00 -19.1 -178.2 -19.4 181.8 -19.4 181.8
2007-12-10 00:00:00 -19.6 -178.5 -19.9 181.5 -19.9 181.5

top of pageTrack Data:Intensity

jtwc_sh nadi wellington
Date Wind Pres Wind Pres Wind Pres
2007-12-03 00:00:00 15. 1004. 15. 1004.
2007-12-03 06:00:00 15. 1004. 15. 1004.
2007-12-03 12:00:00 20. 1007. 15. 1004. 15. 1004.
2007-12-03 18:00:00 20. 1007. 20. 1002. 20. 1002.
2007-12-04 00:00:00 25. 1004. 25. 1000. 25. 1000.
2007-12-04 06:00:00 25. 1004. 25. 1000. 25. 1000.
2007-12-04 12:00:00 25. 1004. 25. 999. 25. 999.
2007-12-04 18:00:00 30. 1000. 30. 997. 30. 997.
2007-12-05 00:00:00 35. 996. 30. 997. 30. 997.
2007-12-05 06:00:00 50. 985. 40. 990. 40. 990.
2007-12-05 12:00:00 55. 982. 45. 987. 45. 987.
2007-12-05 18:00:00 55. 982. 50. 985. 50. 985.
2007-12-06 00:00:00 55. 982. 50. 980. 50. 980.
2007-12-06 06:00:00 65. 974. 60. 975. 60. 975.
2007-12-06 12:00:00 80. 963. 70. 965. 70. 965.
2007-12-06 18:00:00 100. 948. 80. 955. 80. 955.
2007-12-07 00:00:00 110. 941. 90. 940. 90. 940.
2007-12-07 06:00:00 110. 941. 100. 925. 100. 925.
2007-12-07 12:00:00 110. 941. 90. 935. 90. 935.
2007-12-07 18:00:00 100. 948. 90. 940. 90. 940.
2007-12-08 00:00:00 90. 956. 80. 950. 80. 950.
2007-12-08 06:00:00 75. 967. 70. 965. 70. 965.
2007-12-08 12:00:00 65. 974. 60. 975. 60. 975.
2007-12-08 18:00:00 60. 978. 50. 985. 50. 985.
2007-12-09 00:00:00 50. 985. 40. 992. 40. 992.
jtwc_sh nadi wellington
2007-12-09 06:00:00 35. 996. 30. 997. 30. 997.
2007-12-09 12:00:00 25. 1004. 25. 1000. 25. 1000.
2007-12-09 18:00:00 20. 1007. 20. 1002. 20. 1002.
2007-12-10 00:00:00 20. 1007. 15. 1003. 15. 1003.

top of page Links to source data

Source Source file Format
jtwc_sh bsh052008.txt ATCF
nadi RSMC-Nadi-2007-08-BT-Data.txt:Line=17:DAMAN Text table
wellington TC_BT_2006-2009.csv:Line=232:DAMAN Text table